Guymon Municipal Airport
KGUY : now visible

Airfield :











YOU CAN JOIN US ON...

 
LOGIN :

Register | Disclaimer

   EN    FR    IT 

 









Legend :    VFR   Marginal VFR   IFR   Intensive IFR   Very Intensive IFR
Visi :
Ceiling :
>= 8 km
>= 3000ft
5 to 8 km
1000 to 3000 ft
1500m to 5 km
500 to 1000 ft
800 to 1500m
200 to 500 ft
< 800m
< 200 ft
Symbols :   Thunderstorms  Fog  Heavy snow  Heavy precipitations  Wind > 20 kt






- Airport Elevation : 3123 ft


KGUY - Guymon Municipal

CURRENT METAR :
  • 181053Z AUTO 35015G21KT 10SM CLR 01/M08 A3024 RMK AO2 PK WND 35026/0955 SLP230 T00061083

EXPIRED METARs :
  • 180953Z AUTO 34015G25KT 10SM CLR 02/M07 A3019 RMK AO2 PK WND 34029/0909 SLP210 T00221067

TAF KGUY
Valid from the 18 at 12:00 until the 19 at 12:00 UTC


181130Z 1812/1912 34010G20KT P6SM SKC
FM181700 VRB06KT P6SM FEW200
FM190500 19005KT P6SM BKN150



MET'MAP, your aeronautical weather chart ! - Copyright ORBIFLY December 2007 - Disclaimer

ORBIFLY MET'MAP TEAM :

Programming & Development : Alexandra Zaïnal
Concept & original design : Baudouin d'Aumeries
Assistance for programming : Marc-Olivier Méhu
Technical & hardware support : Manuel Goepfert

Contact : metmap@orbifly.com




SOURCES & CREDITS :

   NOAA       Earth
Advisory